Terminal Aerodrome Forecast
Issued by NWS

Home | Current Version | Previous Version | Text Only | Print | Product List | Glossary On
Versions: 1 2 3 4 5 6 7 8 9 10
000
FTUS46 KSEW 281100
TAFBFI
TAF
KBFI 281130Z 2812/2912 VRB04KT P6SM BKN013 OVC035
      TEMPO 2817/2821 SCT013 BKN035 OVC060
     FM282100 01005KT P6SM VCSH BKN030 OVC050
     FM290800 02006KT P6SM SCT030 BKN060=

USA.gov is the U.S. government's official web portal to all federal, state and local government web resources and services.